National Weather Service United States Department of Commerce

This is an experimental project that is derived straight from the NWS Billings aviation grids. 
There is no human interaction or quality control with this forecast and amendments are not issued.

 

TAF
K3U4 132310Z 1400/1424 11006KT P6SM SKC
     FM140500 12007KT P6SM FEW120 WS020/13035KT
     FM140600 13007KT P6SM FEW120 WS020/13040KT
     FM140700 13008KT P6SM FEW120 WS020/15035KT
     FM140800 13007KT P6SM FEW120
     FM142300 11013G21KT P6SM FEW120
      AMD NOT SKED. UNFL=

TAF
KBHK 132310Z 1400/1424 10013KT P6SM SKC
     FM140700 12010G19KT P6SM FEW150
     FM140800 12011KT P6SM SKC
     FM140900 12010G18KT P6SM FEW150
     FM141100 12010KT P6SM FEW120
     FM141300 13012G21KT P6SM SKC
      AMD NOT SKED. UNFL=

TAF
K6S0 132310Z 1400/1424 11013KT P6SM FEW120
     FM140300 06008KT P6SM FEW120
     FM140500 03007KT P6SM FEW120
     FM141000 07006KT P6SM FEW120
     FM141100 12006KT P6SM FEW120
     FM141200 15006KT P6SM FEW120
      AMD NOT SKED. UNFL=

TAF
K6S1 132310Z 1400/1424 05010KT P6SM FEW120
     FM140400 01006KT P6SM FEW120
     FM140500 32006KT P6SM FEW120
     FM141000 22006KT P6SM FEW150
     FM141800 16012KT P6SM SKC
     FM142300 10009KT P6SM FEW150
      AMD NOT SKED. UNFL=

TAF
K00F 132310Z 1400/1424 10011KT P6SM FEW120
     FM140500 10008KT P6SM FEW120 WS020/12035KT
     FM140700 12009KT P6SM FEW120 WS020/13035KT
     FM140900 13008KT P6SM FEW120
      AMD NOT SKED. UNFL=

TAF
KM46 132310Z 1400/1424 11007KT P6SM SKC
     FM140600 12007KT P6SM FEW120 WS020/14040KT
     FM140700 12007KT P6SM FEW120 WS020/15035KT
     FM140800 12007KT P6SM SCT120
     FM142300 11013G21KT P6SM FEW100
      AMD NOT SKED. UNFL=

TAF
K6S3 132310Z 1400/1424 09011KT P6SM FEW120
     FM140500 VRB05KT P6SM FEW120
     FM141100 VRB05KT P6SM FEW120 WS020/17030KT
     FM141200 VRB05KT P6SM FEW120
     FM141900 12008KT P6SM SKC
     FM142200 09010KT P6SM SKC
      AMD NOT SKED. UNFL=

TAF
K97M 132310Z 1400/1424 11012KT P6SM SKC
     FM140600 12014G22KT P6SM FEW120
     FM140700 12014KT P6SM FEW120
      AMD NOT SKED. UNFL=

TAF
K1S3 132310Z 1400/1424 11009KT P6SM FEW150
     FM140300 09008KT P6SM FEW150
     FM140600 11010KT P6SM FEW120 WS020/14040KT
     FM140800 10009KT P6SM FEW120
     FM141600 12014KT P6SM SKC
      AMD NOT SKED. UNFL=

TAF
K5U7 132310Z 1400/1424 11012KT P6SM SKC
     FM140300 13007KT P6SM FEW120
     FM140500 10007KT P6SM FEW120
     FM140800 35006KT P6SM FEW120
     FM140900 17006KT P6SM FEW120
     FM141800 10006KT P6SM SKC
      AMD NOT SKED. UNFL=

TAF
K29S 132310Z 1400/1424 22007KT P6SM FEW120
     FM141000 14006KT P6SM SKC
     FM141800 17007KT P6SM FEW150
     FM142100 21010G18KT P6SM SKC
     FM142200 21011KT P6SM FEW180
     FM142300 21010G18KT P6SM FEW150
      AMD NOT SKED. UNFL=

TAF
K00U 132310Z 1400/1424 11007KT P6SM SKC
     FM140300 VRB05KT P6SM FEW120
     FM141700 11006KT P6SM SKC
     FM141900 VRB05KT P6SM SKC
     FM142100 13007KT P6SM SKC
      AMD NOT SKED. UNFL=

TAF
KHWQ 132310Z 1400/1424 12012KT P6SM SKC
     FM140400 09009KT P6SM FEW120
     FM140600 06007KT P6SM FEW120
     FM140700 01007KT P6SM FEW120
     FM141200 34007KT P6SM FEW120
     FM141500 12006KT P6SM SKC
      AMD NOT SKED. UNFL=

TAF
K6U7 132310Z 1400/1424 11009KT P6SM FEW150
     FM140300 VRB05KT P6SM FEW120
     FM140700 10006KT P6SM FEW120 WS020/15040KT
     FM140800 10006KT P6SM FEW120 WS020/14035KT
     FM140900 10006KT P6SM FEW120
     FM141600 11012KT P6SM FEW100
      AMD NOT SKED. UNFL=

TAF
K6S8 132310Z 1400/1424 09012KT P6SM SKC
     FM140300 07009KT P6SM FEW120
     FM140600 04009KT P6SM FEW120
     FM140900 02006KT P6SM FEW120
     FM141700 07006KT P6SM SKC
     FM142100 09009KT P6SM FEW120
      AMD NOT SKED. UNFL=

TAF
K80S 132310Z 1400/1424 11008KT P6SM SKC
     FM140300 VRB05KT P6SM FEW120
     FM142100 13007KT P6SM FEW120
      AMD NOT SKED. UNFL=

TAF
KRED 132310Z 1400/1424 08010KT P6SM FEW120
     FM140300 26006KT P6SM FEW100
     FM140600 23007KT P6SM FEW120
     FM140900 20009KT P6SM FEW150
     FM141300 17007KT P6SM FEW120
     FM141500 14009KT P6SM SKC
      AMD NOT SKED. UNFL=

TAF
KRPX 132310Z 1400/1424 11007KT P6SM FEW120
     FM140200 VRB05KT P6SM FEW120
     FM141900 12007KT P6SM SKC
      AMD NOT SKED. UNFL=

TAF
K8U0 132310Z 1400/1424 11009KT P6SM SKC
     FM140400 09006KT P6SM FEW120
     FM140800 VRB04KT P6SM FEW120
     FM141800 12006KT P6SM SKC
      AMD NOT SKED. UNFL=

TAF
K9U1 132310Z 1400/1424 15009KT P6SM FEW100
     FM140300 18008KT P6SM FEW100
     FM140400 21009KT P6SM FEW120
     FM141400 00000KT P6SM FEW120
     FM141900 16008KT P6SM FEW120
     FM142100 16010G18KT P6SM FEW120
      AMD NOT SKED. UNFL=